FR-0223 weather

Flaine-Ete Heliport
Flaine, Rhône Alpes, France

Public forecast

Using degrees Celsius for public forecast. Weather courtesy of forecast.io.

METAR (pilot weather report)

Closest report is Annecy-Haute-Savoie-Mont Blanc Airport, 25.0 nm (46.3 km) W. Retrieved 2019/07/23 15:30 UTC (0 seconds ago):

LFLP 231530Z AUTO 23004KT 170V300 CAVOK 37/07 Q1018 NOSIG

TAF (pilot weather forecast)

Closest forecast is Annecy-Haute-Savoie-Mont Blanc Airport, 25.0 nm (46.3 km) W. Retrieved 2019/07/23 15:00 UTC (23 minutes ago):

TAF LFLP 231400Z 2315/2415 25005KT CAVOK TEMPO 2320/2413 VRB02KT BECMG 2413/2415 36006KT